sensor_id;sensor_type;location;lat;lon;timestamp;P1;durP1;ratioP1;P2;durP2;ratioP2
14235;SDS011;7202;50.718;7.072;2023-03-20T00:02:16;34.53;;;22.35;;
14235;SDS011;7202;50.718;7.072;2023-03-20T00:04:47;34.03;;;21.80;;
14235;SDS011;7202;50.718;7.072;2023-03-20T00:07:15;33.45;;;21.85;;
14235;SDS011;7202;50.718;7.072;2023-03-20T00:09:44;33.38;;;22.85;;
14235;SDS011;7202;50.718;7.072;2023-03-20T00:12:13;30.88;;;21.08;;
14235;SDS011;7202;50.718;7.072;2023-03-20T00:14:49;33.42;;;22.48;;
14235;SDS011;7202;50.718;7.072;2023-03-20T00:17:19;33.55;;;21.42;;
14235;SDS011;7202;50.718;7.072;2023-03-20T00:19:49;28.73;;;20.48;;
14235;SDS011;7202;50.718;7.072;2023-03-20T00:22:19;32.25;;;21.17;;
14235;SDS011;7202;50.718;7.072;2023-03-20T00:24:48;32.97;;;22.20;;
14235;SDS011;7202;50.718;7.072;2023-03-20T00:27:18;32.33;;;22.17;;
14235;SDS011;7202;50.718;7.072;2023-03-20T00:29:47;30.50;;;22.52;;
14235;SDS011;7202;50.718;7.072;2023-03-20T00:32:16;27.35;;;20.13;;
14235;SDS011;7202;50.718;7.072;2023-03-20T00:34:46;29.58;;;20.67;;
14235;SDS011;7202;50.718;7.072;2023-03-20T00:37:15;31.67;;;20.70;;
14235;SDS011;7202;50.718;7.072;2023-03-20T00:39:44;30.77;;;21.08;;
14235;SDS011;7202;50.718;7.072;2023-03-20T00:42:15;28.48;;;20.55;;
14235;SDS011;7202;50.718;7.072;2023-03-20T00:44:48;27.67;;;20.77;;
14235;SDS011;7202;50.718;7.072;2023-03-20T00:47:23;28.58;;;19.45;;
14235;SDS011;7202;50.718;7.072;2023-03-20T00:49:55;32.92;;;21.02;;
14235;SDS011;7202;50.718;7.072;2023-03-20T00:52:25;29.95;;;20.70;;
14235;SDS011;7202;50.718;7.072;2023-03-20T00:54:54;29.33;;;20.27;;
14235;SDS011;7202;50.718;7.072;2023-03-20T00:57:24;31.67;;;20.55;;
14235;SDS011;7202;50.718;7.072;2023-03-20T00:59:55;34.30;;;20.85;;
14235;SDS011;7202;50.718;7.072;2023-03-20T01:02:27;30.50;;;19.98;;
14235;SDS011;7202;50.718;7.072;2023-03-20T01:04:59;28.25;;;19.75;;
14235;SDS011;7202;50.718;7.072;2023-03-20T01:07:29;31.20;;;21.15;;
14235;SDS011;7202;50.718;7.072;2023-03-20T01:09:58;31.63;;;20.75;;
14235;SDS011;7202;50.718;7.072;2023-03-20T01:12:27;27.50;;;19.73;;
14235;SDS011;7202;50.718;7.072;2023-03-20T01:14:56;29.38;;;19.67;;
14235;SDS011;7202;50.718;7.072;2023-03-20T01:17:26;29.90;;;20.50;;
14235;SDS011;7202;50.718;7.072;2023-03-20T01:19:55;28.20;;;19.33;;
14235;SDS011;7202;50.718;7.072;2023-03-20T01:22:25;30.83;;;19.85;;
14235;SDS011;7202;50.718;7.072;2023-03-20T01:24:53;29.17;;;19.88;;
14235;SDS011;7202;50.718;7.072;2023-03-20T01:27:22;30.67;;;19.75;;
14235;SDS011;7202;50.718;7.072;2023-03-20T01:29:50;29.98;;;19.02;;
14235;SDS011;7202;50.718;7.072;2023-03-20T01:32:19;29.70;;;19.92;;
14235;SDS011;7202;50.718;7.072;2023-03-20T01:34:50;27.85;;;18.55;;
14235;SDS011;7202;50.718;7.072;2023-03-20T01:37:21;27.92;;;19.25;;
14235;SDS011;7202;50.718;7.072;2023-03-20T01:39:53;27.55;;;19.38;;
14235;SDS011;7202;50.718;7.072;2023-03-20T01:42:24;31.27;;;19.15;;
14235;SDS011;7202;50.718;7.072;2023-03-20T01:44:53;29.67;;;18.98;;
14235;SDS011;7202;50.718;7.072;2023-03-20T01:47:22;27.55;;;17.83;;
14235;SDS011;7202;50.718;7.072;2023-03-20T01:52:51;24.50;;;16.75;;
14235;SDS011;7202;50.718;7.072;2023-03-20T01:55:26;24.55;;;15.73;;
14235;SDS011;7202;50.718;7.072;2023-03-20T01:57:59;24.17;;;16.27;;
14235;SDS011;7202;50.718;7.072;2023-03-20T02:00:33;21.77;;;16.40;;
14235;SDS011;7202;50.718;7.072;2023-03-20T02:03:06;25.00;;;17.15;;
14235;SDS011;7202;50.718;7.072;2023-03-20T02:05:54;22.42;;;15.77;;
14235;SDS011;7202;50.718;7.072;2023-03-20T02:08:28;26.90;;;16.67;;
14235;SDS011;7202;50.718;7.072;2023-03-20T02:11:05;25.25;;;16.40;;
14235;SDS011;7202;50.718;7.072;2023-03-20T02:13:33;23.88;;;15.95;;
14235;SDS011;7202;50.718;7.072;2023-03-20T02:16:03;21.25;;;15.20;;
14235;SDS011;7202;50.718;7.072;2023-03-20T02:18:52;23.60;;;15.55;;
14235;SDS011;7202;50.718;7.072;2023-03-20T02:21:30;25.42;;;15.15;;
14235;SDS011;7202;50.718;7.072;2023-03-20T02:27:33;21.25;;;14.50;;
14235;SDS011;7202;50.718;7.072;2023-03-20T02:30:16;21.05;;;14.85;;
14235;SDS011;7202;50.718;7.072;2023-03-20T02:33:21;23.83;;;15.88;;
14235;SDS011;7202;50.718;7.072;2023-03-20T02:39:36;23.80;;;14.57;;
14235;SDS011;7202;50.718;7.072;2023-03-20T02:42:16;24.40;;;14.50;;
14235;SDS011;7202;50.718;7.072;2023-03-20T02:44:51;22.50;;;14.57;;
14235;SDS011;7202;50.718;7.072;2023-03-20T02:47:27;22.73;;;14.95;;
14235;SDS011;7202;50.718;7.072;2023-03-20T02:50:15;21.20;;;13.93;;
14235;SDS011;7202;50.718;7.072;2023-03-20T02:52:55;22.92;;;14.02;;
14235;SDS011;7202;50.718;7.072;2023-03-20T02:55:31;19.75;;;13.38;;
14235;SDS011;7202;50.718;7.072;2023-03-20T02:58:08;21.00;;;14.85;;
14235;SDS011;7202;50.718;7.072;2023-03-20T03:00:44;25.60;;;14.48;;
14235;SDS011;7202;50.718;7.072;2023-03-20T03:03:18;21.75;;;15.13;;
14235;SDS011;7202;50.718;7.072;2023-03-20T03:05:52;21.17;;;14.15;;
14235;SDS011;7202;50.718;7.072;2023-03-20T03:08:23;20.23;;;13.73;;
14235;SDS011;7202;50.718;7.072;2023-03-20T03:10:57;18.77;;;12.85;;
14235;SDS011;7202;50.718;7.072;2023-03-20T03:13:31;17.15;;;12.63;;
14235;SDS011;7202;50.718;7.072;2023-03-20T03:16:04;25.27;;;15.05;;
14235;SDS011;7202;50.718;7.072;2023-03-20T03:18:35;21.13;;;14.50;;
14235;SDS011;7202;50.718;7.072;2023-03-20T03:21:06;19.08;;;13.25;;
14235;SDS011;7202;50.718;7.072;2023-03-20T03:23:39;20.65;;;13.30;;
14235;SDS011;7202;50.718;7.072;2023-03-20T03:26:13;20.85;;;13.75;;
14235;SDS011;7202;50.718;7.072;2023-03-20T03:28:47;19.52;;;13.35;;
14235;SDS011;7202;50.718;7.072;2023-03-20T03:31:19;21.25;;;13.60;;
14235;SDS011;7202;50.718;7.072;2023-03-20T03:33:49;21.27;;;14.50;;
14235;SDS011;7202;50.718;7.072;2023-03-20T03:36:24;21.50;;;14.65;;
14235;SDS011;7202;50.718;7.072;2023-03-20T03:39:06;23.63;;;15.07;;
14235;SDS011;7202;50.718;7.072;2023-03-20T03:41:43;20.70;;;14.00;;
14235;SDS011;7202;50.718;7.072;2023-03-20T03:44:15;22.55;;;14.32;;
14235;SDS011;7202;50.718;7.072;2023-03-20T03:46:51;19.45;;;13.35;;
14235;SDS011;7202;50.718;7.072;2023-03-20T03:49:23;21.98;;;14.35;;
14235;SDS011;7202;50.718;7.072;2023-03-20T03:51:55;20.70;;;14.57;;
14235;SDS011;7202;50.718;7.072;2023-03-20T03:54:30;22.98;;;14.05;;
14235;SDS011;7202;50.718;7.072;2023-03-20T03:57:36;17.30;;;12.07;;
14235;SDS011;7202;50.718;7.072;2023-03-20T04:00:14;20.08;;;13.73;;
14235;SDS011;7202;50.718;7.072;2023-03-20T04:02:47;19.00;;;13.07;;
14235;SDS011;7202;50.718;7.072;2023-03-20T04:05:18;19.88;;;13.40;;
14235;SDS011;7202;50.718;7.072;2023-03-20T04:07:51;18.52;;;12.68;;
14235;SDS011;7202;50.718;7.072;2023-03-20T04:10:22;22.27;;;14.90;;
14235;SDS011;7202;50.718;7.072;2023-03-20T04:12:53;22.10;;;13.73;;
14235;SDS011;7202;50.718;7.072;2023-03-20T04:15:22;22.42;;;14.80;;
14235;SDS011;7202;50.718;7.072;2023-03-20T04:17:53;23.08;;;15.20;;
14235;SDS011;7202;50.718;7.072;2023-03-20T04:20:23;22.30;;;14.93;;
14235;SDS011;7202;50.718;7.072;2023-03-20T04:22:52;19.50;;;14.65;;
14235;SDS011;7202;50.718;7.072;2023-03-20T04:25:21;21.65;;;14.40;;
14235;SDS011;7202;50.718;7.072;2023-03-20T04:27:56;23.42;;;14.25;;
14235;SDS011;7202;50.718;7.072;2023-03-20T04:30:50;21.42;;;14.57;;
14235;SDS011;7202;50.718;7.072;2023-03-20T04:33:37;20.48;;;14.18;;
14235;SDS011;7202;50.718;7.072;2023-03-20T04:36:43;21.58;;;13.50;;
14235;SDS011;7202;50.718;7.072;2023-03-20T04:39:14;21.73;;;14.25;;
14235;SDS011;7202;50.718;7.072;2023-03-20T04:41:44;26.75;;;15.70;;
14235;SDS011;7202;50.718;7.072;2023-03-20T04:44:15;22.90;;;14.65;;
14235;SDS011;7202;50.718;7.072;2023-03-20T04:46:45;24.85;;;16.27;;
14235;SDS011;7202;50.718;7.072;2023-03-20T04:49:16;23.50;;;16.38;;
14235;SDS011;7202;50.718;7.072;2023-03-20T04:51:46;25.02;;;15.88;;
14235;SDS011;7202;50.718;7.072;2023-03-20T04:54:22;24.88;;;16.48;;
14235;SDS011;7202;50.718;7.072;2023-03-20T04:56:51;24.65;;;15.20;;
14235;SDS011;7202;50.718;7.072;2023-03-20T04:59:22;23.38;;;14.55;;
14235;SDS011;7202;50.718;7.072;2023-03-20T05:01:51;23.42;;;14.35;;
14235;SDS011;7202;50.718;7.072;2023-03-20T05:04:40;21.17;;;13.48;;
14235;SDS011;7202;50.718;7.072;2023-03-20T05:07:28;19.88;;;13.20;;
14235;SDS011;7202;50.718;7.072;2023-03-20T05:10:21;19.77;;;12.88;;
14235;SDS011;7202;50.718;7.072;2023-03-20T05:13:17;19.77;;;13.00;;
14235;SDS011;7202;50.718;7.072;2023-03-20T05:16:19;19.25;;;12.63;;
14235;SDS011;7202;50.718;7.072;2023-03-20T05:19:32;18.25;;;12.70;;
14235;SDS011;7202;50.718;7.072;2023-03-20T05:22:32;17.80;;;12.80;;
14235;SDS011;7202;50.718;7.072;2023-03-20T05:25:43;20.70;;;12.98;;
14235;SDS011;7202;50.718;7.072;2023-03-20T05:28:50;19.00;;;13.63;;
14235;SDS011;7202;50.718;7.072;2023-03-20T05:32:02;19.48;;;13.18;;
14235;SDS011;7202;50.718;7.072;2023-03-20T05:35:11;19.77;;;14.25;;
14235;SDS011;7202;50.718;7.072;2023-03-20T05:38:03;22.90;;;13.70;;
14235;SDS011;7202;50.718;7.072;2023-03-20T05:41:20;21.73;;;14.75;;
14235;SDS011;7202;50.718;7.072;2023-03-20T05:44:26;20.88;;;13.95;;
14235;SDS011;7202;50.718;7.072;2023-03-20T05:47:33;20.38;;;13.15;;
14235;SDS011;7202;50.718;7.072;2023-03-20T05:50:35;22.00;;;13.88;;
14235;SDS011;7202;50.718;7.072;2023-03-20T05:53:28;20.50;;;13.80;;
14235;SDS011;7202;50.718;7.072;2023-03-20T05:56:21;21.83;;;14.80;;
14235;SDS011;7202;50.718;7.072;2023-03-20T05:59:44;20.60;;;13.43;;
14235;SDS011;7202;50.718;7.072;2023-03-20T06:02:45;21.88;;;14.65;;
14235;SDS011;7202;50.718;7.072;2023-03-20T06:05:57;22.08;;;15.18;;
14235;SDS011;7202;50.718;7.072;2023-03-20T06:08:44;23.65;;;15.88;;
14235;SDS011;7202;50.718;7.072;2023-03-20T06:11:13;24.15;;;15.55;;
14235;SDS011;7202;50.718;7.072;2023-03-20T06:13:43;28.75;;;16.23;;
14235;SDS011;7202;50.718;7.072;2023-03-20T06:16:12;27.52;;;15.50;;
14235;SDS011;7202;50.718;7.072;2023-03-20T06:18:42;25.90;;;15.27;;
14235;SDS011;7202;50.718;7.072;2023-03-20T06:21:10;20.42;;;13.65;;
14235;SDS011;7202;50.718;7.072;2023-03-20T06:23:39;24.85;;;15.45;;
14235;SDS011;7202;50.718;7.072;2023-03-20T06:26:08;24.52;;;14.80;;
14235;SDS011;7202;50.718;7.072;2023-03-20T06:29:00;22.58;;;14.43;;
14235;SDS011;7202;50.718;7.072;2023-03-20T06:31:30;22.60;;;13.85;;
14235;SDS011;7202;50.718;7.072;2023-03-20T06:34:02;24.75;;;15.45;;
14235;SDS011;7202;50.718;7.072;2023-03-20T06:36:36;21.60;;;13.32;;
14235;SDS011;7202;50.718;7.072;2023-03-20T06:39:10;21.13;;;13.60;;
14235;SDS011;7202;50.718;7.072;2023-03-20T06:41:38;20.55;;;13.43;;
14235;SDS011;7202;50.718;7.072;2023-03-20T06:44:09;22.17;;;13.90;;
14235;SDS011;7202;50.718;7.072;2023-03-20T06:46:57;21.08;;;12.95;;
14235;SDS011;7202;50.718;7.072;2023-03-20T06:49:27;19.05;;;13.23;;
14235;SDS011;7202;50.718;7.072;2023-03-20T06:51:56;18.95;;;12.68;;
14235;SDS011;7202;50.718;7.072;2023-03-20T06:54:25;21.77;;;14.07;;
14235;SDS011;7202;50.718;7.072;2023-03-20T06:56:54;20.25;;;13.25;;
14235;SDS011;7202;50.718;7.072;2023-03-20T06:59:23;21.20;;;12.93;;
14235;SDS011;7202;50.718;7.072;2023-03-20T07:01:56;20.35;;;14.02;;
14235;SDS011;7202;50.718;7.072;2023-03-20T07:04:27;19.98;;;13.13;;
14235;SDS011;7202;50.718;7.072;2023-03-20T07:06:59;24.92;;;13.20;;
14235;SDS011;7202;50.718;7.072;2023-03-20T07:09:28;19.60;;;12.82;;
14235;SDS011;7202;50.718;7.072;2023-03-20T07:11:57;21.77;;;12.90;;
14235;SDS011;7202;50.718;7.072;2023-03-20T07:14:26;16.73;;;11.95;;
14235;SDS011;7202;50.718;7.072;2023-03-20T07:17:00;18.92;;;13.13;;
14235;SDS011;7202;50.718;7.072;2023-03-20T07:19:30;19.50;;;12.88;;
14235;SDS011;7202;50.718;7.072;2023-03-20T07:21:59;24.23;;;13.52;;
14235;SDS011;7202;50.718;7.072;2023-03-20T07:24:37;19.55;;;12.48;;
14235;SDS011;7202;50.718;7.072;2023-03-20T07:27:06;20.30;;;12.73;;
14235;SDS011;7202;50.718;7.072;2023-03-20T07:29:34;17.42;;;11.93;;
14235;SDS011;7202;50.718;7.072;2023-03-20T07:32:09;19.08;;;12.77;;
14235;SDS011;7202;50.718;7.072;2023-03-20T07:34:47;19.20;;;12.35;;
14235;SDS011;7202;50.718;7.072;2023-03-20T07:37:18;16.70;;;11.75;;
14235;SDS011;7202;50.718;7.072;2023-03-20T07:40:00;15.45;;;10.95;;
14235;SDS011;7202;50.718;7.072;2023-03-20T07:42:31;16.67;;;10.05;;
14235;SDS011;7202;50.718;7.072;2023-03-20T07:45:11;16.58;;;10.48;;
14235;SDS011;7202;50.718;7.072;2023-03-20T07:47:43;15.00;;;10.27;;
14235;SDS011;7202;50.718;7.072;2023-03-20T07:50:15;12.77;;;9.70;;
14235;SDS011;7202;50.718;7.072;2023-03-20T07:52:45;13.60;;;9.75;;
14235;SDS011;7202;50.718;7.072;2023-03-20T07:55:14;11.27;;;8.98;;
14235;SDS011;7202;50.718;7.072;2023-03-20T07:57:45;14.43;;;9.52;;
14235;SDS011;7202;50.718;7.072;2023-03-20T08:00:17;16.58;;;10.02;;
14235;SDS011;7202;50.718;7.072;2023-03-20T08:02:46;14.43;;;9.20;;
14235;SDS011;7202;50.718;7.072;2023-03-20T08:05:17;13.35;;;8.98;;
14235;SDS011;7202;50.718;7.072;2023-03-20T08:07:45;11.52;;;8.68;;
14235;SDS011;7202;50.718;7.072;2023-03-20T08:10:14;10.52;;;8.18;;
14235;SDS011;7202;50.718;7.072;2023-03-20T08:12:43;14.32;;;8.75;;
14235;SDS011;7202;50.718;7.072;2023-03-20T08:15:12;11.15;;;8.45;;
14235;SDS011;7202;50.718;7.072;2023-03-20T08:17:41;12.90;;;8.45;;
14235;SDS011;7202;50.718;7.072;2023-03-20T08:20:10;12.57;;;7.93;;
14235;SDS011;7202;50.718;7.072;2023-03-20T08:22:42;13.32;;;9.07;;
14235;SDS011;7202;50.718;7.072;2023-03-20T08:25:11;12.50;;;9.38;;
14235;SDS011;7202;50.718;7.072;2023-03-20T08:27:40;12.05;;;8.55;;
14235;SDS011;7202;50.718;7.072;2023-03-20T08:30:09;12.48;;;7.88;;
14235;SDS011;7202;50.718;7.072;2023-03-20T08:32:39;12.52;;;8.57;;
14235;SDS011;7202;50.718;7.072;2023-03-20T08:35:08;11.55;;;8.15;;
14235;SDS011;7202;50.718;7.072;2023-03-20T08:37:59;9.23;;;7.68;;
14235;SDS011;7202;50.718;7.072;2023-03-20T08:40:27;9.77;;;7.50;;
14235;SDS011;7202;50.718;7.072;2023-03-20T08:42:56;10.77;;;7.47;;
14235;SDS011;7202;50.718;7.072;2023-03-20T08:45:26;9.75;;;6.90;;
14235;SDS011;7202;50.718;7.072;2023-03-20T08:47:54;11.73;;;7.22;;
14235;SDS011;7202;50.718;7.072;2023-03-20T08:50:23;8.43;;;6.65;;
14235;SDS011;7202;50.718;7.072;2023-03-20T08:52:51;9.35;;;6.20;;
14235;SDS011;7202;50.718;7.072;2023-03-20T08:55:21;9.13;;;6.00;;
14235;SDS011;7202;50.718;7.072;2023-03-20T08:57:50;7.72;;;5.22;;
14235;SDS011;7202;50.718;7.072;2023-03-20T09:00:20;6.75;;;4.50;;
14235;SDS011;7202;50.718;7.072;2023-03-20T09:02:49;5.40;;;4.45;;
14235;SDS011;7202;50.718;7.072;2023-03-20T09:05:18;6.57;;;4.40;;
14235;SDS011;7202;50.718;7.072;2023-03-20T09:07:47;7.72;;;4.97;;
14235;SDS011;7202;50.718;7.072;2023-03-20T09:10:16;7.88;;;3.90;;
14235;SDS011;7202;50.718;7.072;2023-03-20T09:12:46;4.80;;;3.90;;
14235;SDS011;7202;50.718;7.072;2023-03-20T09:15:14;5.55;;;3.97;;
14235;SDS011;7202;50.718;7.072;2023-03-20T09:17:43;7.97;;;4.03;;
14235;SDS011;7202;50.718;7.072;2023-03-20T09:20:12;6.43;;;3.63;;
14235;SDS011;7202;50.718;7.072;2023-03-20T09:22:40;8.05;;;3.97;;
14235;SDS011;7202;50.718;7.072;2023-03-20T09:25:11;6.90;;;4.28;;
14235;SDS011;7202;50.718;7.072;2023-03-20T09:27:39;6.72;;;4.35;;
14235;SDS011;7202;50.718;7.072;2023-03-20T09:30:10;5.88;;;4.40;;
14235;SDS011;7202;50.718;7.072;2023-03-20T09:32:40;7.43;;;5.20;;
14235;SDS011;7202;50.718;7.072;2023-03-20T09:35:08;9.13;;;5.57;;
14235;SDS011;7202;50.718;7.072;2023-03-20T09:37:37;9.63;;;5.22;;
14235;SDS011;7202;50.718;7.072;2023-03-20T09:40:06;7.15;;;5.05;;
14235;SDS011;7202;50.718;7.072;2023-03-20T09:42:38;9.02;;;5.47;;
14235;SDS011;7202;50.718;7.072;2023-03-20T09:45:15;6.78;;;4.95;;
14235;SDS011;7202;50.718;7.072;2023-03-20T09:47:52;7.03;;;5.10;;
14235;SDS011;7202;50.718;7.072;2023-03-20T09:50:30;6.60;;;5.30;;
14235;SDS011;7202;50.718;7.072;2023-03-20T09:53:03;5.70;;;5.07;;
14235;SDS011;7202;50.718;7.072;2023-03-20T09:55:38;8.23;;;5.10;;
14235;SDS011;7202;50.718;7.072;2023-03-20T09:58:10;7.30;;;5.47;;
14235;SDS011;7202;50.718;7.072;2023-03-20T10:00:44;9.57;;;5.22;;
14235;SDS011;7202;50.718;7.072;2023-03-20T10:03:16;6.15;;;4.78;;
14235;SDS011;7202;50.718;7.072;2023-03-20T10:05:49;8.85;;;5.50;;
14235;SDS011;7202;50.718;7.072;2023-03-20T10:08:24;8.05;;;5.10;;
14235;SDS011;7202;50.718;7.072;2023-03-20T10:10:59;10.38;;;5.57;;
14235;SDS011;7202;50.718;7.072;2023-03-20T10:13:47;5.63;;;4.72;;
14235;SDS011;7202;50.718;7.072;2023-03-20T10:16:26;6.03;;;4.82;;
14235;SDS011;7202;50.718;7.072;2023-03-20T10:19:07;6.93;;;4.90;;
14235;SDS011;7202;50.718;7.072;2023-03-20T10:21:45;9.15;;;5.90;;
14235;SDS011;7202;50.718;7.072;2023-03-20T10:24:16;7.78;;;5.30;;
14235;SDS011;7202;50.718;7.072;2023-03-20T10:26:49;9.38;;;5.35;;
14235;SDS011;7202;50.718;7.072;2023-03-20T10:29:23;7.63;;;5.00;;
14235;SDS011;7202;50.718;7.072;2023-03-20T10:32:02;7.60;;;5.03;;
14235;SDS011;7202;50.718;7.072;2023-03-20T10:34:42;8.35;;;5.35;;
14235;SDS011;7202;50.718;7.072;2023-03-20T10:37:29;8.13;;;5.25;;
14235;SDS011;7202;50.718;7.072;2023-03-20T10:40:23;6.20;;;4.80;;
14235;SDS011;7202;50.718;7.072;2023-03-20T10:42:55;7.32;;;5.07;;
14235;SDS011;7202;50.718;7.072;2023-03-20T10:45:32;7.68;;;5.10;;
14235;SDS011;7202;50.718;7.072;2023-03-20T10:48:05;8.80;;;5.38;;
14235;SDS011;7202;50.718;7.072;2023-03-20T10:50:40;7.55;;;5.35;;
14235;SDS011;7202;50.718;7.072;2023-03-20T10:53:17;6.95;;;5.20;;
14235;SDS011;7202;50.718;7.072;2023-03-20T10:55:53;7.40;;;5.18;;
14235;SDS011;7202;50.718;7.072;2023-03-20T10:58:25;8.32;;;5.07;;
14235;SDS011;7202;50.718;7.072;2023-03-20T11:00:57;7.57;;;5.32;;
14235;SDS011;7202;50.718;7.072;2023-03-20T11:03:28;6.55;;;4.88;;
14235;SDS011;7202;50.718;7.072;2023-03-20T11:05:59;9.13;;;5.28;;
14235;SDS011;7202;50.718;7.072;2023-03-20T11:08:36;9.90;;;5.30;;
14235;SDS011;7202;50.718;7.072;2023-03-20T11:11:08;6.15;;;4.20;;
14235;SDS011;7202;50.718;7.072;2023-03-20T11:13:37;7.82;;;4.75;;
14235;SDS011;7202;50.718;7.072;2023-03-20T11:16:10;7.50;;;4.72;;
14235;SDS011;7202;50.718;7.072;2023-03-20T11:18:48;5.50;;;4.10;;
14235;SDS011;7202;50.718;7.072;2023-03-20T11:21:19;3.90;;;3.50;;
14235;SDS011;7202;50.718;7.072;2023-03-20T11:23:50;6.55;;;3.35;;
14235;SDS011;7202;50.718;7.072;2023-03-20T11:26:25;3.83;;;3.13;;
14235;SDS011;7202;50.718;7.072;2023-03-20T11:29:00;6.28;;;3.47;;
14235;SDS011;7202;50.718;7.072;2023-03-20T11:31:29;4.93;;;3.20;;
14235;SDS011;7202;50.718;7.072;2023-03-20T11:34:10;6.15;;;3.20;;
14235;SDS011;7202;50.718;7.072;2023-03-20T11:36:53;4.03;;;2.80;;
14235;SDS011;7202;50.718;7.072;2023-03-20T11:39:35;5.88;;;3.03;;
14235;SDS011;7202;50.718;7.072;2023-03-20T11:42:18;4.70;;;3.15;;
14235;SDS011;7202;50.718;7.072;2023-03-20T11:44:57;5.57;;;3.47;;
14235;SDS011;7202;50.718;7.072;2023-03-20T11:47:29;4.93;;;3.00;;
14235;SDS011;7202;50.718;7.072;2023-03-20T11:50:02;3.88;;;2.88;;
14235;SDS011;7202;50.718;7.072;2023-03-20T11:52:34;3.92;;;2.60;;
14235;SDS011;7202;50.718;7.072;2023-03-20T11:55:06;4.97;;;2.70;;
14235;SDS011;7202;50.718;7.072;2023-03-20T11:57:49;5.80;;;2.92;;
14235;SDS011;7202;50.718;7.072;2023-03-20T12:00:23;8.25;;;2.67;;
14235;SDS011;7202;50.718;7.072;2023-03-20T12:02:53;4.07;;;2.40;;
14235;SDS011;7202;50.718;7.072;2023-03-20T12:05:28;3.30;;;2.08;;
14235;SDS011;7202;50.718;7.072;2023-03-20T12:07:59;6.70;;;2.47;;
14235;SDS011;7202;50.718;7.072;2023-03-20T12:10:33;4.15;;;2.13;;
14235;SDS011;7202;50.718;7.072;2023-03-20T12:13:09;6.28;;;2.25;;
14235;SDS011;7202;50.718;7.072;2023-03-20T12:15:45;4.50;;;2.20;;
14235;SDS011;7202;50.718;7.072;2023-03-20T12:18:16;5.60;;;1.90;;
14235;SDS011;7202;50.718;7.072;2023-03-20T12:20:57;3.75;;;1.92;;
14235;SDS011;7202;50.718;7.072;2023-03-20T12:23:33;3.10;;;2.10;;
14235;SDS011;7202;50.718;7.072;2023-03-20T12:26:07;6.32;;;2.00;;
14235;SDS011;7202;50.718;7.072;2023-03-20T12:28:40;2.47;;;1.55;;
14235;SDS011;7202;50.718;7.072;2023-03-20T12:31:16;5.68;;;2.22;;
14235;SDS011;7202;50.718;7.072;2023-03-20T12:33:51;3.47;;;1.63;;
14235;SDS011;7202;50.718;7.072;2023-03-20T12:36:27;5.60;;;1.45;;
14235;SDS011;7202;50.718;7.072;2023-03-20T12:39:00;4.00;;;1.60;;
14235;SDS011;7202;50.718;7.072;2023-03-20T12:41:33;2.25;;;1.13;;
14235;SDS011;7202;50.718;7.072;2023-03-20T12:44:11;7.40;;;1.50;;
14235;SDS011;7202;50.718;7.072;2023-03-20T12:46:58;6.60;;;1.83;;
14235;SDS011;7202;50.718;7.072;2023-03-20T12:49:40;1.80;;;1.20;;
14235;SDS011;7202;50.718;7.072;2023-03-20T12:52:21;4.22;;;1.65;;
14235;SDS011;7202;50.718;7.072;2023-03-20T12:55:00;3.35;;;1.52;;
14235;SDS011;7202;50.718;7.072;2023-03-20T12:57:41;5.15;;;1.70;;
14235;SDS011;7202;50.718;7.072;2023-03-20T13:00:19;3.88;;;1.52;;
14235;SDS011;7202;50.718;7.072;2023-03-20T13:03:00;4.15;;;1.52;;
14235;SDS011;7202;50.718;7.072;2023-03-20T13:05:37;4.10;;;1.63;;
14235;SDS011;7202;50.718;7.072;2023-03-20T13:08:15;2.92;;;1.45;;
14235;SDS011;7202;50.718;7.072;2023-03-20T13:10:55;6.63;;;1.70;;
14235;SDS011;7202;50.718;7.072;2023-03-20T13:13:30;3.13;;;1.77;;
14235;SDS011;7202;50.718;7.072;2023-03-20T13:16:06;3.42;;;1.40;;
14235;SDS011;7202;50.718;7.072;2023-03-20T13:18:46;2.83;;;1.80;;
14235;SDS011;7202;50.718;7.072;2023-03-20T13:21:23;5.15;;;1.88;;
14235;SDS011;7202;50.718;7.072;2023-03-20T13:24:08;5.57;;;1.63;;
14235;SDS011;7202;50.718;7.072;2023-03-20T13:26:47;3.47;;;1.38;;
14235;SDS011;7202;50.718;7.072;2023-03-20T13:29:22;3.90;;;1.40;;
14235;SDS011;7202;50.718;7.072;2023-03-20T13:31:57;3.13;;;1.60;;
14235;SDS011;7202;50.718;7.072;2023-03-20T13:34:37;6.70;;;1.58;;
14235;SDS011;7202;50.718;7.072;2023-03-20T13:37:20;4.72;;;1.63;;
14235;SDS011;7202;50.718;7.072;2023-03-20T13:39:59;4.30;;;1.55;;
14235;SDS011;7202;50.718;7.072;2023-03-20T13:42:34;6.43;;;1.58;;
14235;SDS011;7202;50.718;7.072;2023-03-20T13:45:09;3.83;;;1.50;;
14235;SDS011;7202;50.718;7.072;2023-03-20T13:47:48;5.97;;;1.80;;
14235;SDS011;7202;50.718;7.072;2023-03-20T13:50:24;3.78;;;1.40;;
14235;SDS011;7202;50.718;7.072;2023-03-20T13:53:02;4.47;;;1.48;;
14235;SDS011;7202;50.718;7.072;2023-03-20T13:55:41;3.50;;;1.60;;
14235;SDS011;7202;50.718;7.072;2023-03-20T13:58:18;3.70;;;1.40;;
14235;SDS011;7202;50.718;7.072;2023-03-20T14:01:04;5.15;;;1.52;;
14235;SDS011;7202;50.718;7.072;2023-03-20T14:03:39;3.53;;;1.30;;
14235;SDS011;7202;50.718;7.072;2023-03-20T14:06:15;4.07;;;1.50;;
14235;SDS011;7202;50.718;7.072;2023-03-20T14:08:51;5.43;;;1.48;;
14235;SDS011;7202;50.718;7.072;2023-03-20T14:11:28;5.75;;;1.88;;
14235;SDS011;7202;50.718;7.072;2023-03-20T14:14:04;4.57;;;1.42;;
14235;SDS011;7202;50.718;7.072;2023-03-20T14:16:39;6.20;;;2.10;;
14235;SDS011;7202;50.718;7.072;2023-03-20T14:19:15;4.97;;;1.85;;
14235;SDS011;7202;50.718;7.072;2023-03-20T14:21:46;4.60;;;1.70;;
14235;SDS011;7202;50.718;7.072;2023-03-20T14:24:17;5.35;;;2.08;;
14235;SDS011;7202;50.718;7.072;2023-03-20T14:26:50;2.03;;;1.50;;
14235;SDS011;7202;50.718;7.072;2023-03-20T14:29:30;5.13;;;1.98;;
14235;SDS011;7202;50.718;7.072;2023-03-20T14:32:11;4.05;;;1.40;;
14235;SDS011;7202;50.718;7.072;2023-03-20T14:35:22;4.70;;;1.25;;
14235;SDS011;7202;50.718;7.072;2023-03-20T14:37:57;3.17;;;1.40;;
14235;SDS011;7202;50.718;7.072;2023-03-20T14:40:37;4.53;;;1.50;;
14235;SDS011;7202;50.718;7.072;2023-03-20T14:43:14;4.88;;;1.55;;
14235;SDS011;7202;50.718;7.072;2023-03-20T14:45:50;2.60;;;1.35;;
14235;SDS011;7202;50.718;7.072;2023-03-20T14:48:25;6.95;;;1.50;;
14235;SDS011;7202;50.718;7.072;2023-03-20T14:51:03;5.35;;;1.83;;
14235;SDS011;7202;50.718;7.072;2023-03-20T14:53:40;6.35;;;1.80;;
14235;SDS011;7202;50.718;7.072;2023-03-20T14:56:09;3.70;;;1.58;;
14235;SDS011;7202;50.718;7.072;2023-03-20T14:58:51;6.80;;;2.00;;
14235;SDS011;7202;50.718;7.072;2023-03-20T15:01:27;7.43;;;1.73;;
14235;SDS011;7202;50.718;7.072;2023-03-20T15:04:16;4.22;;;1.83;;
14235;SDS011;7202;50.718;7.072;2023-03-20T15:06:52;5.00;;;1.77;;
14235;SDS011;7202;50.718;7.072;2023-03-20T15:09:25;5.18;;;1.88;;
14235;SDS011;7202;50.718;7.072;2023-03-20T15:11:56;5.07;;;2.00;;
14235;SDS011;7202;50.718;7.072;2023-03-20T15:14:33;6.18;;;1.70;;
14235;SDS011;7202;50.718;7.072;2023-03-20T15:17:16;4.93;;;2.13;;
14235;SDS011;7202;50.718;7.072;2023-03-20T15:19:46;6.43;;;1.90;;
14235;SDS011;7202;50.718;7.072;2023-03-20T15:22:18;5.43;;;2.03;;
14235;SDS011;7202;50.718;7.072;2023-03-20T15:24:51;8.93;;;2.63;;
14235;SDS011;7202;50.718;7.072;2023-03-20T15:27:22;4.57;;;1.92;;
14235;SDS011;7202;50.718;7.072;2023-03-20T15:29:56;5.13;;;2.20;;
14235;SDS011;7202;50.718;7.072;2023-03-20T15:32:28;5.35;;;2.38;;
14235;SDS011;7202;50.718;7.072;2023-03-20T15:34:59;7.93;;;2.17;;
14235;SDS011;7202;50.718;7.072;2023-03-20T15:37:30;4.60;;;2.10;;
14235;SDS011;7202;50.718;7.072;2023-03-20T15:40:01;4.85;;;2.17;;
14235;SDS011;7202;50.718;7.072;2023-03-20T15:42:39;5.95;;;2.10;;
14235;SDS011;7202;50.718;7.072;2023-03-20T15:45:17;5.68;;;2.22;;
14235;SDS011;7202;50.718;7.072;2023-03-20T15:47:51;5.68;;;2.30;;
14235;SDS011;7202;50.718;7.072;2023-03-20T15:50:29;3.80;;;2.10;;